Time;durP1;ratioP1;P1;durP2;ratioP2;P2;SDS_P1;SDS_P2;PMS_P1;PMS_P2;Temp;Humidity;BMP_temperature;BMP_pressure;BME280_temperature;BME280_humidity;BME280_pressure;Samples;Min_cycle;Max_cycle;Signal;HPM_P1;HPM_P2
2024/02/19 00:01:01;;;;;;;0.77;0.63;;;;;;;;;;5045356;28;20053;-81
2024/02/19 00:03:28;;;;;;;0.60;0.60;;;;;;;;;;5042348;28;20072;-81
2024/02/19 00:05:55;;;;;;;0.77;0.70;;;;;;;;;;5026246;28;20399;-81
2024/02/19 00:08:21;;;;;;;0.88;0.77;;;;;;;;;;5034850;28;20505;-81
2024/02/19 00:10:48;;;;;;;2.08;0.60;;;;;;;;;;5026794;28;20052;-81
2024/02/19 00:13:15;;;;;;;1.20;0.70;;;;;;;;;;5035038;28;20049;-81
2024/02/19 00:15:42;;;;;;;1.05;0.50;;;;;;;;;;5069137;28;20053;-80
2024/02/19 00:18:09;;;;;;;1.65;0.93;;;;;;;;;;5037044;28;20124;-80
2024/02/19 00:20:37;;;;;;;0.63;0.60;;;;;;;;;;5041022;28;20060;-81
2024/02/19 00:23:03;;;;;;;0.80;0.80;;;;;;;;;;5052270;28;20045;-80
2024/02/19 00:25:30;;;;;;;1.10;0.65;;;;;;;;;;5048096;28;20531;-80
2024/02/19 00:27:57;;;;;;;0.70;0.55;;;;;;;;;;5032937;28;20048;-80
2024/02/19 00:30:23;;;;;;;0.80;0.60;;;;;;;;;;5066584;28;20049;-80
2024/02/19 00:32:50;;;;;;;0.40;0.30;;;;;;;;;;5046384;28;20060;-80
2024/02/19 00:35:20;;;;;;;0.60;0.60;;;;;;;;;;5029852;28;20075;-81
2024/02/19 00:37:50;;;;;;;0.40;0.20;;;;;;;;;;5030948;28;20053;-81
2024/02/19 00:40:18;;;;;;;0.30;0.30;;;;;;;;;;5029310;28;20091;-81
2024/02/19 00:42:45;;;;;;;0.47;0.40;;;;;;;;;;5032722;28;20064;-81
2024/02/19 00:45:13;;;;;;;0.65;0.45;;;;;;;;;;5030870;28;20072;-80
2024/02/19 00:47:39;;;;;;;0.10;0.10;;;;;;;;;;5055530;28;20056;-80
2024/02/19 00:50:06;;;;;;;0.47;0.32;;;;;;;;;;5045109;28;20049;-80
2024/02/19 00:52:34;;;;;;;0.52;0.40;;;;;;;;;;5028508;28;20052;-80
2024/02/19 00:55:00;;;;;;;3.85;0.30;;;;;;;;;;5062297;28;20426;-80
2024/02/19 00:57:27;;;;;;;0.85;0.38;;;;;;;;;;5028728;28;20048;-81
2024/02/19 00:59:54;;;;;;;1.23;0.30;;;;;;;;;;5028724;28;20049;-80
2024/02/19 01:02:20;;;;;;;0.17;0.17;;;;;;;;;;5064246;28;20095;-79
2024/02/19 01:04:49;;;;;;;0.45;0.40;;;;;;;;;;5041153;28;20075;-79
2024/02/19 01:07:16;;;;;;;0.30;0.10;;;;;;;;;;5029320;28;20128;-80
2024/02/19 01:09:43;;;;;;;0.30;0.30;;;;;;;;;;5046021;28;20045;-79
2024/02/19 01:12:09;;;;;;;0.73;0.28;;;;;;;;;;5064147;28;20112;-79
2024/02/19 01:14:36;;;;;;;0.35;0.28;;;;;;;;;;5064236;28;20079;-80
2024/02/19 01:17:03;;;;;;;0.45;0.30;;;;;;;;;;5046112;28;20487;-79
2024/02/19 01:19:32;;;;;;;0.20;0.20;;;;;;;;;;5046306;28;20083;-79
2024/02/19 01:21:59;;;;;;;0.47;0.20;;;;;;;;;;5030102;28;20102;-81
2024/02/19 01:24:26;;;;;;;0.30;0.20;;;;;;;;;;5064170;28;20083;-79
2024/02/19 01:26:52;;;;;;;1.08;0.30;;;;;;;;;;5047032;28;20519;-80
2024/02/19 01:29:20;;;;;;;1.20;0.30;;;;;;;;;;5029506;28;20053;-80
2024/02/19 01:31:46;;;;;;;0.32;0.25;;;;;;;;;;5037720;28;20119;-79
2024/02/19 01:34:14;;;;;;;0.38;0.38;;;;;;;;;;5023536;28;20499;-81
2024/02/19 01:36:41;;;;;;;0.50;0.50;;;;;;;;;;5045416;28;20055;-79
2024/02/19 01:39:07;;;;;;;0.20;0.20;;;;;;;;;;5028042;28;20045;-81
2024/02/19 01:41:34;;;;;;;0.50;0.50;;;;;;;;;;5042787;28;20110;-80
2024/02/19 01:44:02;;;;;;;1.15;0.60;;;;;;;;;;5065616;28;20048;-80
2024/02/19 01:46:29;;;;;;;1.58;1.33;;;;;;;;;;5050828;28;20044;-81
2024/02/19 01:48:55;;;;;;;3.10;2.13;;;;;;;;;;5044991;28;20052;-81
2024/02/19 01:51:22;;;;;;;2.78;1.92;;;;;;;;;;5036340;28;20501;-80
2024/02/19 01:53:49;;;;;;;1.70;1.60;;;;;;;;;;5044550;28;20680;-80
2024/02/19 01:56:17;;;;;;;1.52;1.30;;;;;;;;;;5044902;28;20052;-80
2024/02/19 01:58:44;;;;;;;0.65;0.65;;;;;;;;;;5044498;28;20060;-81
2024/02/19 02:01:11;;;;;;;2.03;0.65;;;;;;;;;;5044745;28;20128;-81
2024/02/19 02:03:39;;;;;;;0.52;0.52;;;;;;;;;;5062509;28;20473;-81
2024/02/19 02:06:05;;;;;;;0.52;0.52;;;;;;;;;;5028963;28;20134;-81
2024/02/19 02:08:32;;;;;;;1.60;0.80;;;;;;;;;;5029184;28;20044;-81
2024/02/19 02:10:59;;;;;;;1.10;1.00;;;;;;;;;;5062120;28;20080;-80
2024/02/19 02:13:26;;;;;;;1.45;0.90;;;;;;;;;;5040279;28;20055;-80
2024/02/19 02:15:52;;;;;;;0.90;0.63;;;;;;;;;;5044364;28;20057;-80
2024/02/19 02:18:19;;;;;;;0.80;0.70;;;;;;;;;;5044352;28;20271;-81
2024/02/19 02:20:46;;;;;;;0.80;0.70;;;;;;;;;;5046945;28;20056;-81
2024/02/19 02:23:13;;;;;;;1.08;0.85;;;;;;;;;;5064447;28;20075;-81
2024/02/19 02:25:40;;;;;;;1.02;0.80;;;;;;;;;;5046222;28;20053;-81
2024/02/19 02:28:07;;;;;;;0.80;0.80;;;;;;;;;;5045887;28;20071;-81
2024/02/19 02:30:33;;;;;;;1.65;1.00;;;;;;;;;;5030736;28;20057;-81
2024/02/19 02:33:00;;;;;;;1.27;1.17;;;;;;;;;;5062651;28;20071;-81
2024/02/19 02:35:28;;;;;;;2.60;1.13;;;;;;;;;;5063898;28;20105;-82
2024/02/19 02:37:55;;;;;;;0.80;0.80;;;;;;;;;;5037018;28;20049;-81
2024/02/19 02:40:21;;;;;;;3.08;1.20;;;;;;;;;;5035901;28;20041;-82
2024/02/19 02:42:48;;;;;;;2.20;1.20;;;;;;;;;;5018539;28;20118;-80
2024/02/19 02:45:15;;;;;;;1.65;1.10;;;;;;;;;;5038686;28;20486;-81
2024/02/19 02:47:42;;;;;;;2.03;1.20;;;;;;;;;;5040834;28;20080;-80
2024/02/19 02:50:09;;;;;;;2.33;1.10;;;;;;;;;;5041696;28;20052;-79
2024/02/19 02:52:35;;;;;;;1.92;1.40;;;;;;;;;;5040400;28;20064;-79
2024/02/19 02:55:02;;;;;;;2.80;1.17;;;;;;;;;;5041664;28;20149;-80
2024/02/19 02:57:29;;;;;;;3.15;1.33;;;;;;;;;;5059063;28;20820;-80
2024/02/19 02:59:55;;;;;;;2.20;1.60;;;;;;;;;;5041442;28;20052;-79
2024/02/19 03:02:22;;;;;;;2.22;1.50;;;;;;;;;;5040233;28;20049;-79
2024/02/19 03:04:49;;;;;;;4.95;1.50;;;;;;;;;;5024147;28;20134;-79
2024/02/19 03:07:16;;;;;;;1.80;1.48;;;;;;;;;;5040687;28;20132;-81
2024/02/19 03:09:43;;;;;;;2.42;1.50;;;;;;;;;;5043162;28;20048;-80
2024/02/19 03:12:09;;;;;;;3.15;1.42;;;;;;;;;;5041692;28;20533;-80
2024/02/19 03:14:36;;;;;;;1.77;1.40;;;;;;;;;;5060429;28;20052;-81
2024/02/19 03:17:04;;;;;;;3.92;1.40;;;;;;;;;;5044805;28;20063;-81
2024/02/19 03:19:31;;;;;;;2.25;1.63;;;;;;;;;;5028998;28;20049;-81
2024/02/19 03:21:58;;;;;;;2.35;1.65;;;;;;;;;;5044142;28;20469;-81
2024/02/19 03:24:25;;;;;;;2.25;1.60;;;;;;;;;;5029858;28;20423;-81
2024/02/19 03:26:53;;;;;;;3.20;1.50;;;;;;;;;;5045513;28;20509;-81
2024/02/19 03:29:20;;;;;;;1.88;1.60;;;;;;;;;;5044921;28;20079;-81
2024/02/19 03:31:47;;;;;;;2.95;1.77;;;;;;;;;;5063025;28;20063;-80
2024/02/19 03:34:14;;;;;;;4.00;1.90;;;;;;;;;;5044111;28;20057;-81
2024/02/19 03:36:50;;;;;;;4.05;2.10;;;;;;;;;;5045282;28;20052;-81
2024/02/19 03:39:17;;;;;;;3.78;1.80;;;;;;;;;;5046383;28;20083;-82
2024/02/19 03:41:44;;;;;;;4.43;1.77;;;;;;;;;;5026074;28;20053;-81
2024/02/19 03:44:11;;;;;;;2.58;1.73;;;;;;;;;;5031033;28;20045;-81
2024/02/19 03:46:38;;;;;;;2.45;2.03;;;;;;;;;;5063321;28;20080;-80
2024/02/19 03:49:05;;;;;;;3.17;2.05;;;;;;;;;;5031373;28;20052;-79
2024/02/19 03:51:32;;;;;;;1.92;1.70;;;;;;;;;;5031286;28;20052;-81
2024/02/19 03:53:59;;;;;;;3.50;2.47;;;;;;;;;;5061862;28;20049;-81
2024/02/19 03:56:25;;;;;;;4.28;2.35;;;;;;;;;;5048015;28;20051;-80
2024/02/19 03:58:52;;;;;;;3.15;2.42;;;;;;;;;;5047513;28;20057;-81
2024/02/19 04:01:19;;;;;;;2.97;2.28;;;;;;;;;;5063398;28;20045;-79
2024/02/19 04:03:45;;;;;;;4.20;2.65;;;;;;;;;;5038608;28;20049;-79
2024/02/19 04:06:12;;;;;;;5.13;2.70;;;;;;;;;;5044196;28;20056;-80
2024/02/19 04:08:40;;;;;;;2.97;2.45;;;;;;;;;;5046211;28;20098;-80
2024/02/19 04:11:06;;;;;;;3.45;2.70;;;;;;;;;;5060782;28;20499;-80
2024/02/19 04:13:33;;;;;;;3.08;2.35;;;;;;;;;;5028624;28;20287;-79
2024/02/19 04:16:00;;;;;;;2.47;2.28;;;;;;;;;;5045185;28;20060;-78
2024/02/19 04:18:26;;;;;;;4.38;3.10;;;;;;;;;;5046408;28;20507;-82
2024/02/19 04:20:53;;;;;;;2.80;2.38;;;;;;;;;;5047536;28;20052;-82
2024/02/19 04:23:20;;;;;;;4.28;2.00;;;;;;;;;;5064857;28;20469;-82
2024/02/19 04:25:47;;;;;;;3.50;2.28;;;;;;;;;;5046611;28;20045;-82
2024/02/19 04:28:14;;;;;;;3.17;2.05;;;;;;;;;;5028565;28;20554;-82
2024/02/19 04:30:40;;;;;;;3.35;1.90;;;;;;;;;;5048038;28;20106;-81
2024/02/19 04:33:07;;;;;;;3.60;2.13;;;;;;;;;;5066425;28;20095;-81
2024/02/19 04:35:34;;;;;;;2.88;2.00;;;;;;;;;;5066371;28;20070;-80
2024/02/19 04:38:01;;;;;;;4.18;2.20;;;;;;;;;;5066583;28;20045;-82
2024/02/19 04:40:27;;;;;;;5.50;2.38;;;;;;;;;;5032447;28;20053;-81
2024/02/19 04:42:54;;;;;;;3.47;2.30;;;;;;;;;;5067159;28;20577;-81
2024/02/19 04:45:21;;;;;;;2.65;2.00;;;;;;;;;;5066267;28;20045;-82
2024/02/19 04:47:47;;;;;;;4.60;2.78;;;;;;;;;;5028286;28;20049;-81
2024/02/19 04:50:15;;;;;;;2.22;1.85;;;;;;;;;;5061968;28;20049;-80
2024/02/19 04:52:42;;;;;;;3.25;2.17;;;;;;;;;;5029549;28;20107;-82
2024/02/19 04:55:09;;;;;;;5.25;2.13;;;;;;;;;;5041426;28;20045;-81
2024/02/19 04:57:35;;;;;;;3.47;2.47;;;;;;;;;;5060949;28;20111;-81
2024/02/19 05:00:03;;;;;;;2.83;2.15;;;;;;;;;;5039021;28;20053;-80
2024/02/19 05:02:29;;;;;;;4.25;2.20;;;;;;;;;;5025055;28;20088;-80
2024/02/19 05:04:56;;;;;;;3.17;2.05;;;;;;;;;;5033288;28;20446;-79
2024/02/19 05:07:23;;;;;;;4.00;2.00;;;;;;;;;;5041002;28;20422;-80
2024/02/19 05:09:50;;;;;;;3.65;2.40;;;;;;;;;;5024422;28;20067;-79
2024/02/19 05:12:17;;;;;;;4.47;2.05;;;;;;;;;;5033657;28;20061;-79
2024/02/19 05:14:44;;;;;;;4.45;2.42;;;;;;;;;;5041404;28;20053;-79
2024/02/19 05:17:10;;;;;;;4.28;2.20;;;;;;;;;;5043004;28;20052;-78
2024/02/19 05:19:37;;;;;;;6.13;2.78;;;;;;;;;;5042195;28;20045;-79
2024/02/19 05:22:04;;;;;;;5.30;2.95;;;;;;;;;;5040553;28;20051;-79
2024/02/19 05:24:30;;;;;;;5.15;2.97;;;;;;;;;;5041678;28;20075;-79
2024/02/19 05:26:57;;;;;;;7.43;3.30;;;;;;;;;;5041202;28;20045;-79
2024/02/19 05:29:24;;;;;;;6.15;3.05;;;;;;;;;;5023868;28;20057;-79
2024/02/19 05:31:54;;;;;;;4.47;2.70;;;;;;;;;;5034009;28;20111;-79
2024/02/19 05:34:21;;;;;;;5.93;2.75;;;;;;;;;;5024113;28;20057;-79
2024/02/19 05:36:47;;;;;;;5.95;2.58;;;;;;;;;;5023947;28;20049;-79
2024/02/19 05:39:14;;;;;;;3.38;2.78;;;;;;;;;;5024681;28;20079;-79
2024/02/19 05:41:41;;;;;;;8.23;3.67;;;;;;;;;;5041208;28;20056;-79
2024/02/19 05:44:09;;;;;;;5.55;2.83;;;;;;;;;;5021457;28;20046;-79
2024/02/19 05:46:36;;;;;;;5.75;2.50;;;;;;;;;;5037568;28;20108;-78
2024/02/19 05:49:03;;;;;;;4.70;2.65;;;;;;;;;;5055889;28;20059;-78
2024/02/19 05:51:30;;;;;;;4.05;2.22;;;;;;;;;;5057103;28;20118;-79
2024/02/19 05:53:56;;;;;;;7.95;3.05;;;;;;;;;;5043928;28;20059;-78
2024/02/19 05:56:24;;;;;;;5.00;2.00;;;;;;;;;;5058901;28;20076;-78
2024/02/19 05:58:52;;;;;;;6.13;2.40;;;;;;;;;;5035657;28;20053;-79
2024/02/19 06:01:19;;;;;;;3.33;1.83;;;;;;;;;;5042563;28;20418;-81
2024/02/19 06:03:46;;;;;;;3.63;2.00;;;;;;;;;;5044945;28;20063;-81
2024/02/19 06:06:12;;;;;;;2.88;2.05;;;;;;;;;;5034907;28;20071;-79
2024/02/19 06:08:39;;;;;;;7.32;2.88;;;;;;;;;;5040968;28;20498;-79
2024/02/19 06:11:06;;;;;;;5.88;2.75;;;;;;;;;;5040734;28;20053;-80
2024/02/19 06:13:33;;;;;;;4.63;2.53;;;;;;;;;;5024243;28;20064;-80
2024/02/19 06:15:59;;;;;;;5.43;2.92;;;;;;;;;;5041186;28;20083;-80
2024/02/19 06:18:26;;;;;;;3.90;1.60;;;;;;;;;;5058223;28;20057;-78
2024/02/19 06:20:53;;;;;;;5.32;3.03;;;;;;;;;;5058466;28;20049;-81
2024/02/19 06:23:20;;;;;;;3.80;2.05;;;;;;;;;;5040901;28;20048;-80
2024/02/19 06:25:46;;;;;;;7.15;2.38;;;;;;;;;;5040922;28;20060;-80
2024/02/19 06:28:13;;;;;;;5.65;2.28;;;;;;;;;;5039536;28;20042;-80
2024/02/19 06:30:40;;;;;;;1.90;1.70;;;;;;;;;;5040975;28;20133;-80
2024/02/19 06:33:07;;;;;;;3.72;2.08;;;;;;;;;;5041232;28;20064;-80
2024/02/19 06:35:34;;;;;;;3.20;1.70;;;;;;;;;;5024917;28;20083;-80
2024/02/19 06:38:01;;;;;;;3.55;2.00;;;;;;;;;;5041461;28;20053;-80
2024/02/19 06:40:27;;;;;;;4.60;2.28;;;;;;;;;;5040351;28;20045;-79
2024/02/19 06:42:54;;;;;;;3.72;2.10;;;;;;;;;;5036233;28;20053;-81
2024/02/19 06:45:21;;;;;;;2.85;1.58;;;;;;;;;;5058585;28;20052;-83
2024/02/19 06:47:49;;;;;;;4.95;2.05;;;;;;;;;;5023025;28;20076;-82
2024/02/19 06:50:15;;;;;;;4.93;2.38;;;;;;;;;;5022938;28;20146;-80
2024/02/19 06:52:45;;;;;;;4.97;2.00;;;;;;;;;;5020671;28;20049;-78
2024/02/19 06:55:16;;;;;;;5.15;2.30;;;;;;;;;;5053425;28;20057;-80
2024/02/19 06:57:43;;;;;;;5.43;2.22;;;;;;;;;;5037808;28;20056;-80
2024/02/19 07:00:10;;;;;;;2.05;1.85;;;;;;;;;;5038522;28;20079;-78
2024/02/19 07:02:37;;;;;;;2.95;1.83;;;;;;;;;;5054480;28;20111;-79
2024/02/19 07:05:05;;;;;;;4.25;2.17;;;;;;;;;;5041272;28;20053;-78
2024/02/19 07:07:33;;;;;;;5.38;2.50;;;;;;;;;;5036175;28;20049;-78
2024/02/19 07:10:03;;;;;;;3.15;1.67;;;;;;;;;;5035737;28;20127;-78
2024/02/19 07:12:30;;;;;;;3.47;2.15;;;;;;;;;;5017264;28;20640;-78
2024/02/19 07:14:57;;;;;;;2.72;1.55;;;;;;;;;;5019107;28;20056;-77
2024/02/19 07:17:25;;;;;;;2.75;1.60;;;;;;;;;;5034271;28;20079;-77
2024/02/19 07:19:51;;;;;;;2.97;1.80;;;;;;;;;;5016543;28;20052;-77
2024/02/19 07:22:18;;;;;;;3.67;2.03;;;;;;;;;;5032343;28;20106;-77
2024/02/19 07:24:46;;;;;;;4.07;2.17;;;;;;;;;;5001393;28;20076;-78
2024/02/19 07:27:13;;;;;;;4.40;1.67;;;;;;;;;;5051936;28;20128;-77
2024/02/19 07:29:40;;;;;;;4.57;1.40;;;;;;;;;;5036774;28;20083;-78
2024/02/19 07:32:07;;;;;;;3.60;1.40;;;;;;;;;;5021777;28;20083;-77
2024/02/19 07:34:34;;;;;;;4.10;1.52;;;;;;;;;;5038832;28;20134;-78
2024/02/19 07:37:01;;;;;;;5.00;1.80;;;;;;;;;;5038376;28;20388;-76
2024/02/19 07:39:27;;;;;;;4.85;1.55;;;;;;;;;;5037158;28;20056;-77
2024/02/19 07:41:54;;;;;;;4.68;1.48;;;;;;;;;;5037701;28;20056;-78
2024/02/19 07:44:21;;;;;;;1.40;1.10;;;;;;;;;;5039590;28;20099;-77
2024/02/19 07:46:47;;;;;;;2.25;1.08;;;;;;;;;;5023764;28;20045;-77
2024/02/19 07:49:14;;;;;;;4.35;1.23;;;;;;;;;;5038443;28;20070;-78
2024/02/19 07:51:41;;;;;;;3.13;1.40;;;;;;;;;;5038208;28;20055;-78
2024/02/19 07:54:08;;;;;;;3.83;1.35;;;;;;;;;;5040488;28;20053;-78
2024/02/19 07:56:35;;;;;;;2.58;1.25;;;;;;;;;;5060002;28;20055;-79
2024/02/19 07:59:02;;;;;;;3.45;2.83;;;;;;;;;;5040324;28;20115;-78
2024/02/19 08:01:29;;;;;;;4.55;1.80;;;;;;;;;;5038127;28;20045;-76
2024/02/19 08:03:56;;;;;;;2.33;1.25;;;;;;;;;;5038415;28;20495;-81
2024/02/19 08:06:23;;;;;;;3.65;1.02;;;;;;;;;;5022477;28;20052;-79
2024/02/19 08:08:49;;;;;;;2.60;1.20;;;;;;;;;;5023696;28;20507;-78
2024/02/19 08:11:18;;;;;;;1.55;1.33;;;;;;;;;;5024975;28;20721;-78
2024/02/19 08:13:45;;;;;;;4.80;1.10;;;;;;;;;;5022746;28;20522;-77
2024/02/19 08:16:13;;;;;;;4.32;1.33;;;;;;;;;;5018699;28;20067;-78
2024/02/19 08:18:40;;;;;;;2.03;1.15;;;;;;;;;;5037393;28;20395;-79
2024/02/19 08:21:07;;;;;;;1.95;1.00;;;;;;;;;;5055501;28;20537;-82
2024/02/19 08:23:34;;;;;;;4.53;1.15;;;;;;;;;;5041489;28;20049;-81
2024/02/19 08:26:00;;;;;;;4.20;1.13;;;;;;;;;;5041071;28;20041;-81
2024/02/19 08:28:27;;;;;;;11.32;3.05;;;;;;;;;;5027371;28;20048;-81
2024/02/19 08:30:54;;;;;;;2.58;1.00;;;;;;;;;;5027129;28;20136;-80
2024/02/19 08:33:21;;;;;;;1.60;0.77;;;;;;;;;;5040400;28;20095;-81
2024/02/19 08:35:49;;;;;;;4.53;1.60;;;;;;;;;;5050910;28;20045;-82
2024/02/19 08:38:16;;;;;;;3.15;0.60;;;;;;;;;;5051913;28;20049;-81
2024/02/19 08:40:43;;;;;;;1.48;1.38;;;;;;;;;;5035512;28;20056;-78
2024/02/19 08:43:11;;;;;;;3.78;1.63;;;;;;;;;;5039691;28;20055;-79
2024/02/19 08:45:39;;;;;;;3.03;0.80;;;;;;;;;;5017673;28;20068;-80
2024/02/19 08:48:07;;;;;;;2.90;0.50;;;;;;;;;;5020932;28;20052;-79
2024/02/19 08:50:34;;;;;;;2.15;0.98;;;;;;;;;;5040125;28;20056;-79
2024/02/19 08:53:01;;;;;;;1.42;0.75;;;;;;;;;;5050836;28;20041;-78
2024/02/19 08:55:28;;;;;;;0.77;0.60;;;;;;;;;;5037342;28;20083;-79
2024/02/19 08:57:55;;;;;;;1.58;0.80;;;;;;;;;;5054571;28;20061;-78
2024/02/19 09:00:23;;;;;;;5.13;1.05;;;;;;;;;;5044808;28;20045;-82
2024/02/19 09:02:50;;;;;;;3.00;1.00;;;;;;;;;;5039532;28;20437;-79
2024/02/19 09:05:20;;;;;;;2.40;0.60;;;;;;;;;;5039609;28;20049;-81
2024/02/19 09:07:47;;;;;;;1.60;1.00;;;;;;;;;;5035130;28;20080;-81
2024/02/19 09:10:14;;;;;;;1.88;0.63;;;;;;;;;;5038671;28;20044;-80
2024/02/19 09:12:41;;;;;;;2.47;1.08;;;;;;;;;;5038120;28;20053;-81
2024/02/19 09:15:08;;;;;;;2.85;0.75;;;;;;;;;;5036667;28;20056;-81
2024/02/19 09:17:35;;;;;;;3.20;0.80;;;;;;;;;;5022501;28;20137;-82
2024/02/19 09:20:03;;;;;;;1.05;0.50;;;;;;;;;;5040819;28;20067;-79
2024/02/19 09:22:30;;;;;;;1.80;0.80;;;;;;;;;;5022983;28;20057;-79
2024/02/19 09:24:57;;;;;;;2.33;1.00;;;;;;;;;;5039717;28;20547;-79
2024/02/19 09:27:24;;;;;;;3.53;0.85;;;;;;;;;;5038356;28;20049;-79
2024/02/19 09:29:51;;;;;;;2.65;0.90;;;;;;;;;;5042625;28;20049;-79
2024/02/19 09:32:17;;;;;;;2.50;1.00;;;;;;;;;;5024098;28;20067;-81
2024/02/19 09:34:44;;;;;;;1.92;0.70;;;;;;;;;;5023312;28;20049;-81
2024/02/19 09:37:11;;;;;;;2.58;1.20;;;;;;;;;;5037631;28;20086;-80
2024/02/19 09:39:39;;;;;;;2.00;1.10;;;;;;;;;;5039398;28;20558;-80
2024/02/19 09:42:08;;;;;;;3.42;1.25;;;;;;;;;;5038434;28;20043;-80
2024/02/19 09:44:35;;;;;;;5.22;1.23;;;;;;;;;;5035075;28;20045;-80
2024/02/19 09:47:02;;;;;;;4.75;1.13;;;;;;;;;;5021186;28;20068;-79
2024/02/19 09:49:31;;;;;;;1.98;0.88;;;;;;;;;;5056247;28;20049;-78
2024/02/19 09:52:02;;;;;;;3.25;1.58;;;;;;;;;;5039092;28;20068;-78
2024/02/19 09:54:29;;;;;;;3.53;1.27;;;;;;;;;;5036860;28;20053;-79
2024/02/19 09:56:56;;;;;;;3.13;1.13;;;;;;;;;;5034037;28;20056;-78
2024/02/19 09:59:23;;;;;;;7.97;1.40;;;;;;;;;;5021098;28;20056;-79
2024/02/19 10:01:51;;;;;;;5.90;1.30;;;;;;;;;;5021650;28;20074;-79
2024/02/19 10:04:20;;;;;;;7.78;3.08;;;;;;;;;;5016056;28;20045;-79
2024/02/19 10:06:48;;;;;;;4.53;2.40;;;;;;;;;;5019488;28;20053;-79
2024/02/19 10:09:15;;;;;;;5.68;1.60;;;;;;;;;;5020666;28;20057;-80
2024/02/19 10:11:43;;;;;;;3.67;1.67;;;;;;;;;;5038209;28;20099;-79
2024/02/19 10:14:10;;;;;;;1.85;1.00;;;;;;;;;;5038889;28;20052;-79
2024/02/19 10:16:37;;;;;;;3.20;1.00;;;;;;;;;;5038241;28;20053;-79
2024/02/19 10:19:06;;;;;;;1.83;1.05;;;;;;;;;;5036922;28;20111;-79
2024/02/19 10:21:38;;;;;;;3.00;1.20;;;;;;;;;;5038076;28;20088;-78
2024/02/19 10:24:05;;;;;;;6.55;1.20;;;;;;;;;;5055880;28;20045;-78
2024/02/19 10:26:31;;;;;;;2.75;1.10;;;;;;;;;;5037422;28;20044;-79
2024/02/19 10:28:58;;;;;;;1.27;0.88;;;;;;;;;;5021440;28;20056;-79
2024/02/19 10:31:27;;;;;;;1.58;0.75;;;;;;;;;;5038048;28;20051;-78
2024/02/19 10:33:56;;;;;;;3.47;1.23;;;;;;;;;;5014310;28;20053;-78
2024/02/19 10:36:23;;;;;;;2.38;1.00;;;;;;;;;;5037590;28;20079;-79
2024/02/19 10:38:50;;;;;;;5.50;1.60;;;;;;;;;;5039312;28;20096;-78
2024/02/19 10:41:21;;;;;;;5.63;0.85;;;;;;;;;;5053622;28;20538;-77
2024/02/19 10:43:51;;;;;;;6.07;1.38;;;;;;;;;;5019712;28;20071;-77
2024/02/19 10:46:20;;;;;;;5.13;1.15;;;;;;;;;;5039517;28;20053;-78
2024/02/19 10:48:47;;;;;;;5.47;0.88;;;;;;;;;;5018788;28;20102;-78
2024/02/19 10:51:17;;;;;;;3.38;1.88;;;;;;;;;;5034661;28;20447;-78
2024/02/19 10:53:46;;;;;;;2.85;1.10;;;;;;;;;;5033800;28;20053;-77
2024/02/19 10:56:17;;;;;;;5.78;1.50;;;;;;;;;;5013479;28;20052;-78
2024/02/19 10:58:56;;;;;;;5.57;2.13;;;;;;;;;;5016487;28;20056;-77
2024/02/19 11:01:23;;;;;;;4.93;1.90;;;;;;;;;;5008953;28;20044;-77
2024/02/19 11:03:50;;;;;;;2.42;1.20;;;;;;;;;;5007706;28;20045;-78
2024/02/19 11:06:18;;;;;;;3.58;1.50;;;;;;;;;;5034601;28;20080;-78
2024/02/19 11:08:53;;;;;;;5.38;1.55;;;;;;;;;;5019563;28;20850;-77
2024/02/19 11:11:21;;;;;;;5.13;1.48;;;;;;;;;;5035409;28;20071;-78
2024/02/19 11:13:48;;;;;;;4.75;1.95;;;;;;;;;;5033422;28;20609;-78
2024/02/19 11:16:16;;;;;;;2.85;0.98;;;;;;;;;;5033626;28;20068;-77
2024/02/19 11:18:43;;;;;;;3.97;0.93;;;;;;;;;;5047829;28;20049;-77
2024/02/19 11:21:10;;;;;;;13.15;4.88;;;;;;;;;;5026338;28;20499;-77
2024/02/19 11:23:37;;;;;;;7.13;1.88;;;;;;;;;;5014959;28;20098;-77
2024/02/19 11:26:04;;;;;;;3.70;0.93;;;;;;;;;;5011645;28;20080;-77
2024/02/19 11:28:36;;;;;;;30.85;10.43;;;;;;;;;;5019005;28;20052;-77
2024/02/19 11:31:04;;;;;;;13.25;3.58;;;;;;;;;;5024274;28;20052;-77
2024/02/19 11:33:30;;;;;;;16.80;5.47;;;;;;;;;;5025053;28;20072;-75
2024/02/19 11:35:57;;;;;;;4.97;1.63;;;;;;;;;;5048535;28;20067;-76
2024/02/19 11:38:24;;;;;;;2.38;0.75;;;;;;;;;;5030065;28;20106;-77
2024/02/19 11:40:51;;;;;;;4.32;0.70;;;;;;;;;;5029911;28;20454;-77
2024/02/19 11:43:19;;;;;;;7.45;2.38;;;;;;;;;;5029945;28;20478;-77
2024/02/19 11:45:45;;;;;;;4.47;0.80;;;;;;;;;;5021007;28;20096;-77
2024/02/19 11:48:12;;;;;;;4.38;0.90;;;;;;;;;;5049957;28;20099;-76
2024/02/19 11:50:41;;;;;;;3.47;1.48;;;;;;;;;;5029944;28;20053;-77
2024/02/19 11:53:11;;;;;;;4.40;1.23;;;;;;;;;;5048428;28;20052;-78
2024/02/19 11:55:38;;;;;;;9.32;3.70;;;;;;;;;;5055299;28;20053;-78
2024/02/19 11:58:06;;;;;;;8.68;2.72;;;;;;;;;;5053335;28;20117;-81
2024/02/19 12:00:33;;;;;;;4.07;1.70;;;;;;;;;;5032663;28;20056;-82
2024/02/19 12:03:00;;;;;;;1.88;1.30;;;;;;;;;;5047556;28;20063;-81
2024/02/19 12:05:27;;;;;;;5.28;1.45;;;;;;;;;;5042860;28;20398;-82
2024/02/19 12:07:54;;;;;;;4.60;0.80;;;;;;;;;;5040375;28;20079;-79
2024/02/19 12:10:21;;;;;;;10.55;0.98;;;;;;;;;;5031435;28;20119;-77
2024/02/19 12:12:49;;;;;;;3.55;1.05;;;;;;;;;;5048293;28;20057;-76
2024/02/19 12:15:15;;;;;;;6.15;1.52;;;;;;;;;;5050520;28;20099;-76
2024/02/19 12:17:43;;;;;;;7.57;1.23;;;;;;;;;;5052072;28;20060;-77
2024/02/19 12:20:13;;;;;;;2.35;1.45;;;;;;;;;;5018351;28;20057;-77
2024/02/19 12:22:40;;;;;;;3.28;0.60;;;;;;;;;;5050523;28;20451;-76
2024/02/19 12:25:07;;;;;;;6.18;1.60;;;;;;;;;;5051695;28;20419;-77
2024/02/19 12:27:34;;;;;;;2.33;0.73;;;;;;;;;;5012749;28;20136;-77
2024/02/19 12:30:01;;;;;;;2.38;1.10;;;;;;;;;;5017818;28;20049;-77
2024/02/19 12:32:29;;;;;;;2.60;0.70;;;;;;;;;;5033966;28;20064;-77
2024/02/19 12:34:55;;;;;;;5.65;1.42;;;;;;;;;;5050230;28;20110;-77
2024/02/19 12:37:23;;;;;;;1.20;0.98;;;;;;;;;;5014410;28;20073;-76
2024/02/19 12:39:50;;;;;;;2.95;1.00;;;;;;;;;;5034245;28;20057;-77
2024/02/19 12:42:17;;;;;;;2.70;1.00;;;;;;;;;;5017649;28;20045;-77
2024/02/19 12:44:44;;;;;;;2.28;1.20;;;;;;;;;;5033517;28;20745;-77
2024/02/19 12:47:11;;;;;;;2.55;0.90;;;;;;;;;;5017531;28;20587;-77
2024/02/19 12:49:38;;;;;;;1.30;0.75;;;;;;;;;;5033966;28;20041;-77
2024/02/19 12:52:08;;;;;;;3.47;0.93;;;;;;;;;;5012719;28;20494;-77
2024/02/19 12:54:35;;;;;;;13.35;4.20;;;;;;;;;;5033770;28;20068;-77
2024/02/19 12:57:04;;;;;;;6.97;2.17;;;;;;;;;;5050330;28;20060;-77
2024/02/19 12:59:31;;;;;;;4.25;1.00;;;;;;;;;;5032899;28;20060;-77
2024/02/19 13:01:57;;;;;;;1.77;0.82;;;;;;;;;;5033002;28;20491;-77
2024/02/19 13:04:24;;;;;;;1.30;0.68;;;;;;;;;;5033739;28;20049;-77
2024/02/19 13:06:55;;;;;;;2.55;1.42;;;;;;;;;;5033764;28;20044;-77
2024/02/19 13:09:24;;;;;;;3.13;0.82;;;;;;;;;;5018001;28;20051;-77
2024/02/19 13:11:51;;;;;;;4.10;1.00;;;;;;;;;;5033255;28;20487;-75
2024/02/19 13:14:18;;;;;;;3.38;1.17;;;;;;;;;;5029090;28;20057;-76
2024/02/19 13:16:45;;;;;;;5.82;1.52;;;;;;;;;;5034427;28;20049;-76
2024/02/19 13:19:24;;;;;;;2.75;0.85;;;;;;;;;;5041911;28;20049;-83
2024/02/19 13:21:51;;;;;;;5.55;1.00;;;;;;;;;;5036814;28;20467;-78
2024/02/19 13:24:18;;;;;;;2.92;0.77;;;;;;;;;;5036751;28;20071;-78
2024/02/19 13:26:45;;;;;;;1.42;0.60;;;;;;;;;;5037652;28;20056;-78
2024/02/19 13:29:14;;;;;;;2.15;0.75;;;;;;;;;;5044939;28;20053;-81
2024/02/19 13:31:41;;;;;;;4.03;0.60;;;;;;;;;;5023941;28;20049;-80
2024/02/19 13:34:08;;;;;;;2.10;0.60;;;;;;;;;;5040344;28;20040;-81
2024/02/19 13:36:35;;;;;;;2.30;0.88;;;;;;;;;;5060768;28;20063;-81
2024/02/19 13:39:02;;;;;;;2.50;0.95;;;;;;;;;;5019884;28;20051;-81
2024/02/19 13:41:29;;;;;;;4.35;1.15;;;;;;;;;;5024663;28;20048;-82
2024/02/19 13:43:56;;;;;;;4.30;1.65;;;;;;;;;;5041225;28;20080;-82
2024/02/19 13:46:22;;;;;;;6.20;1.75;;;;;;;;;;5039751;28;20052;-81
2024/02/19 13:48:54;;;;;;;8.88;1.92;;;;;;;;;;5038897;28;20080;-80
2024/02/19 13:51:21;;;;;;;6.53;1.20;;;;;;;;;;5057723;28;20056;-82
2024/02/19 13:53:47;;;;;;;4.40;1.00;;;;;;;;;;5057395;28;20052;-79
2024/02/19 13:56:14;;;;;;;3.47;1.05;;;;;;;;;;5039296;28;20049;-81
2024/02/19 13:58:42;;;;;;;4.15;1.00;;;;;;;;;;5042790;28;20051;-81
2024/02/19 14:01:10;;;;;;;4.93;1.25;;;;;;;;;;5026622;28;20048;-81
2024/02/19 14:03:37;;;;;;;3.15;0.90;;;;;;;;;;5030749;28;20080;-81
2024/02/19 14:06:04;;;;;;;4.20;1.88;;;;;;;;;;5048342;28;20072;-81
2024/02/19 14:08:31;;;;;;;1.77;0.82;;;;;;;;;;5051998;28;20568;-81
2024/02/19 14:10:59;;;;;;;3.85;0.80;;;;;;;;;;5051509;28;20048;-78
2024/02/19 14:13:26;;;;;;;2.38;1.27;;;;;;;;;;5032247;28;20395;-81
2024/02/19 14:15:52;;;;;;;4.35;1.13;;;;;;;;;;5014928;28;20490;-81
2024/02/19 14:18:19;;;;;;;2.58;1.00;;;;;;;;;;5036601;28;20107;-81
2024/02/19 14:20:46;;;;;;;5.38;1.42;;;;;;;;;;5053074;28;20060;-81
2024/02/19 14:23:13;;;;;;;2.95;1.02;;;;;;;;;;5051567;28;20513;-80
2024/02/19 14:25:39;;;;;;;3.15;1.08;;;;;;;;;;5039398;28;20099;-81
2024/02/19 14:28:08;;;;;;;3.17;0.93;;;;;;;;;;5038544;28;20049;-80
2024/02/19 14:30:36;;;;;;;7.32;1.50;;;;;;;;;;5039027;28;20113;-77
2024/02/19 14:33:03;;;;;;;5.43;1.40;;;;;;;;;;5032806;28;20049;-76
2024/02/19 14:35:30;;;;;;;4.45;1.40;;;;;;;;;;5015386;28;20114;-76
2024/02/19 14:37:58;;;;;;;6.55;1.35;;;;;;;;;;5031721;28;20057;-76
2024/02/19 14:40:25;;;;;;;4.00;1.40;;;;;;;;;;5029654;28;20059;-78
2024/02/19 14:42:51;;;;;;;5.88;1.58;;;;;;;;;;5053253;28;20049;-76